createdAt,value
2019-01-06T00:00:28.271Z,2.93
2019-01-06T00:03:13.057Z,2.27
2019-01-06T00:05:48.955Z,2.10
2019-01-06T00:08:21.560Z,1.70
2019-01-06T00:10:54.166Z,2.00
2019-01-06T00:13:40.100Z,1.57
2019-01-06T00:16:18.870Z,2.20
2019-01-06T00:19:03.540Z,2.33
2019-01-06T00:21:36.482Z,2.47
2019-01-06T00:24:22.412Z,2.57
2019-01-06T00:27:08.449Z,2.40
2019-01-06T00:29:38.406Z,3.03
2019-01-06T00:32:24.434Z,2.50
2019-01-06T00:35:06.516Z,2.63
2019-01-06T00:37:54.541Z,2.63
2019-01-06T00:40:39.754Z,2.27
2019-01-06T00:43:14.308Z,2.30
2019-01-06T00:45:50.813Z,2.40
2019-01-06T00:48:32.943Z,2.30
2019-01-06T00:51:08.907Z,2.07
2019-01-06T00:53:38.826Z,2.03
2019-01-06T00:56:20.542Z,2.10
2019-01-06T00:58:53.134Z,1.83
2019-01-06T01:01:40.966Z,2.60
2019-01-06T01:04:10.876Z,2.17
2019-01-06T01:06:46.907Z,2.67
2019-01-06T01:09:33.938Z,3.10
2019-01-06T01:12:23.041Z,2.47
2019-01-06T01:15:09.166Z,2.83
2019-01-06T01:17:55.522Z,3.70
2019-01-06T01:20:31.139Z,3.63
2019-01-06T01:23:13.052Z,4.17
2019-01-06T01:25:58.267Z,3.53
2019-01-06T01:28:44.777Z,3.87
2019-01-06T01:31:32.923Z,3.40
2019-01-06T01:34:09.125Z,3.20
2019-01-06T01:36:55.936Z,3.40
2019-01-06T01:39:31.903Z,3.53
2019-01-06T01:42:20.096Z,3.80
2019-01-06T01:44:58.915Z,3.20
2019-01-06T01:47:28.807Z,2.77
2019-01-06T01:50:04.530Z,3.70
2019-01-06T01:52:34.986Z,4.03
2019-01-06T01:55:11.299Z,3.70
2019-01-06T01:57:59.291Z,2.90
2019-01-06T02:00:29.168Z,3.07
2019-01-06T02:03:05.190Z,2.50
2019-01-06T02:05:35.105Z,2.73
2019-01-06T02:08:17.059Z,2.53
2019-01-06T02:10:49.507Z,2.77
2019-01-06T02:13:19.395Z,2.50
2019-01-06T02:15:51.981Z,2.70
2019-01-06T02:18:27.400Z,2.70
2019-01-06T02:21:03.335Z,2.87
2019-01-06T02:23:39.087Z,2.33
2019-01-06T02:26:27.527Z,2.27
2019-01-06T02:29:06.055Z,2.63
2019-01-06T02:31:38.897Z,2.67
2019-01-06T02:34:11.470Z,2.23
2019-01-06T02:36:57.888Z,2.40
2019-01-06T02:39:30.748Z,2.70
2019-01-06T02:42:19.221Z,2.43
2019-01-06T02:44:49.108Z,2.57
2019-01-06T02:47:35.227Z,2.60
2019-01-06T02:50:21.902Z,2.57
2019-01-06T02:52:57.683Z,3.13
2019-01-06T02:55:45.669Z,3.03
2019-01-06T02:58:33.585Z,4.70
2019-01-06T03:01:03.484Z,3.13
2019-01-06T03:03:35.987Z,3.27
2019-01-06T03:06:11.601Z,3.20
2019-01-06T03:08:44.130Z,3.30
2019-01-06T03:11:14.030Z,4.47
2019-01-06T03:13:46.824Z,3.53
2019-01-06T03:16:16.708Z,4.20
2019-01-06T03:18:46.584Z,3.90
2019-01-06T03:21:32.677Z,4.47
2019-01-06T03:24:08.544Z,4.10
2019-01-06T03:26:53.422Z,4.07
2019-01-06T03:29:23.305Z,3.50
2019-01-06T03:31:53.199Z,4.07
2019-01-06T03:34:31.900Z,3.67
2019-01-06T03:37:04.530Z,3.40
2019-01-06T03:39:35.184Z,3.40
2019-01-06T03:42:21.553Z,3.27
2019-01-06T03:45:06.456Z,3.40
2019-01-06T03:47:36.348Z,3.43
2019-01-06T03:50:24.583Z,3.63
2019-01-06T03:52:54.472Z,3.20
2019-01-06T03:55:36.319Z,2.97
2019-01-06T03:58:12.256Z,3.00
2019-01-06T04:00:57.111Z,3.73
2019-01-06T04:03:44.951Z,2.70
2019-01-06T04:06:14.900Z,3.10
2019-01-06T04:08:54.016Z,3.53
2019-01-06T04:11:23.894Z,3.70
2019-01-06T04:13:56.468Z,2.70
2019-01-06T04:16:26.349Z,2.90
2019-01-06T04:18:56.237Z,3.07
2019-01-06T04:21:35.330Z,3.37
2019-01-06T04:24:21.751Z,3.20
2019-01-06T04:26:57.275Z,3.07
2019-01-06T04:29:43.630Z,3.30
2019-01-06T04:32:13.501Z,2.90
2019-01-06T04:34:43.392Z,3.10
2019-01-06T04:37:19.225Z,2.60
2019-01-06T04:39:55.059Z,2.87
2019-01-06T04:42:30.892Z,2.13
2019-01-06T04:45:03.495Z,3.27
2019-01-06T04:47:49.713Z,2.77
2019-01-06T04:50:28.934Z,3.80
2019-01-06T04:52:58.804Z,3.03
2019-01-06T04:55:28.690Z,2.90
2019-01-06T04:58:17.058Z,3.37
2019-01-06T05:00:46.949Z,3.27
2019-01-06T05:03:31.972Z,3.07
2019-01-06T05:06:01.856Z,2.70
2019-01-06T05:08:47.759Z,3.17
2019-01-06T05:11:29.607Z,3.27
2019-01-06T05:14:15.815Z,4.07
2019-01-06T05:17:01.993Z,2.60
2019-01-06T05:19:50.091Z,3.27
2019-01-06T05:22:36.304Z,2.77
2019-01-06T05:25:21.444Z,3.83
2019-01-06T05:27:51.327Z,3.30
2019-01-06T05:30:23.962Z,3.13
2019-01-06T05:32:53.848Z,2.87
2019-01-06T05:35:29.588Z,3.47
2019-01-06T05:38:01.864Z,3.97
2019-01-06T05:40:34.684Z,3.70
2019-01-06T05:43:11.360Z,4.80
2019-01-06T05:45:41.241Z,3.23
2019-01-06T05:48:11.108Z,3.50
2019-01-06T05:50:49.914Z,4.10
2019-01-06T05:53:22.779Z,4.33
2019-01-06T05:55:52.673Z,4.33
2019-01-06T05:58:25.397Z,4.50
2019-01-06T06:01:04.294Z,4.33
2019-01-06T06:03:34.176Z,4.27
2019-01-06T06:06:04.165Z,5.10
2019-01-06T06:08:40.248Z,3.80
2019-01-06T06:11:10.150Z,4.30
2019-01-06T06:13:45.907Z,3.93
2019-01-06T06:16:30.779Z,4.47
2019-01-06T06:19:16.729Z,4.40
2019-01-06T06:22:03.223Z,3.93
2019-01-06T06:24:33.238Z,4.63
2019-01-06T06:27:15.108Z,5.20
2019-01-06T06:29:44.977Z,4.53
2019-01-06T06:32:20.873Z,4.67
2019-01-06T06:35:07.061Z,5.20
2019-01-06T06:37:53.165Z,4.67
2019-01-06T06:40:28.793Z,4.33
2019-01-06T06:43:14.054Z,4.60
2019-01-06T06:46:00.211Z,4.50
2019-01-06T06:48:39.270Z,5.30
2019-01-06T06:51:14.979Z,5.43
2019-01-06T06:54:01.105Z,5.00
2019-01-06T06:56:36.995Z,5.40
2019-01-06T06:59:23.181Z,5.03
2019-01-06T07:02:22.459Z,5.87
2019-01-06T07:04:55.092Z,4.77
2019-01-06T07:07:41.303Z,5.00
2019-01-06T07:10:27.337Z,5.13
2019-01-06T07:13:12.213Z,5.67
2019-01-06T07:15:58.039Z,5.33
2019-01-06T07:18:27.999Z,4.70
2019-01-06T07:20:57.887Z,5.00
2019-01-06T07:23:37.099Z,4.83
2019-01-06T07:26:13.016Z,5.27
2019-01-06T07:28:45.822Z,4.90
2019-01-06T07:31:21.626Z,4.77
2019-01-06T07:34:03.541Z,5.13
2019-01-06T07:36:33.424Z,4.27
2019-01-06T07:39:03.308Z,4.20
2019-01-06T07:41:33.193Z,4.60
2019-01-06T07:44:05.806Z,3.77
2019-01-06T07:46:38.730Z,4.53
2019-01-06T07:49:20.783Z,4.70
2019-01-06T07:51:56.807Z,4.80
2019-01-06T07:54:35.906Z,4.23
2019-01-06T07:57:17.716Z,4.50
2019-01-06T08:00:03.928Z,4.13
2019-01-06T08:02:45.816Z,4.83
2019-01-06T08:05:18.643Z,4.60
2019-01-06T08:07:51.603Z,4.30
2019-01-06T08:10:38.190Z,4.83
2019-01-06T08:13:16.927Z,4.07
2019-01-06T08:16:02.843Z,3.87
2019-01-06T08:18:35.107Z,3.97
2019-01-06T08:21:11.782Z,4.60
2019-01-06T08:23:57.008Z,4.37
2019-01-06T08:26:26.899Z,4.53
2019-01-06T08:29:02.804Z,4.27
2019-01-06T08:31:35.383Z,4.70
2019-01-06T08:34:08.643Z,4.13
2019-01-06T08:36:41.264Z,4.00
2019-01-06T08:39:11.205Z,4.10
2019-01-06T08:41:46.921Z,4.53
2019-01-06T08:44:16.817Z,4.97
2019-01-06T08:47:03.033Z,4.53
2019-01-06T08:49:32.928Z,4.27
2019-01-06T08:52:02.897Z,4.83
2019-01-06T08:54:48.992Z,4.67
2019-01-06T08:57:21.577Z,5.37
2019-01-06T09:00:07.843Z,4.67
2019-01-06T09:02:53.076Z,4.93
2019-01-06T09:05:22.954Z,5.60
2019-01-06T09:08:09.433Z,4.83
2019-01-06T09:10:39.308Z,5.73
2019-01-06T09:13:09.190Z,5.17
2019-01-06T09:15:41.748Z,5.40
2019-01-06T09:18:11.646Z,5.97
2019-01-06T09:20:57.987Z,5.60
2019-01-06T09:26:23.256Z,5.73
2019-01-06T09:29:09.673Z,5.07
2019-01-06T09:31:48.456Z,5.47
2019-01-06T09:34:21.294Z,5.27
2019-01-06T09:37:03.123Z,4.97
2019-01-06T09:39:33.007Z,5.30
2019-01-06T09:42:08.879Z,5.40
2019-01-06T09:44:44.973Z,4.70
2019-01-06T09:47:18.044Z,4.27
2019-01-06T09:49:57.034Z,4.73
2019-01-06T09:52:43.633Z,5.07
2019-01-06T09:55:13.503Z,4.50
2019-01-06T09:57:43.405Z,4.33
2019-01-06T10:00:19.481Z,4.77
2019-01-06T10:02:49.368Z,4.03
2019-01-06T10:05:19.250Z,3.50
2019-01-06T10:07:49.142Z,4.07
2019-01-06T10:10:21.746Z,5.80
2019-01-06T10:13:07.875Z,3.90
2019-01-06T10:15:54.111Z,4.00
2019-01-06T10:18:33.184Z,4.40
2019-01-06T10:21:03.063Z,3.60
2019-01-06T10:23:41.690Z,3.27
2019-01-06T10:26:17.055Z,3.60
2019-01-06T10:28:52.903Z,3.77
2019-01-06T10:31:31.805Z,3.93
2019-01-06T10:34:19.803Z,3.00
2019-01-06T10:36:55.340Z,3.50
2019-01-06T10:39:27.935Z,3.37
2019-01-06T10:42:00.583Z,3.43
2019-01-06T10:44:48.544Z,2.97
2019-01-06T10:47:34.950Z,2.90
2019-01-06T10:50:14.379Z,2.83
2019-01-06T10:53:00.266Z,3.07
2019-01-06T10:55:30.161Z,3.40
2019-01-06T10:58:16.329Z,3.03
2019-01-06T11:01:01.556Z,2.70
2019-01-06T11:03:47.995Z,2.57
2019-01-06T11:06:23.607Z,3.00
2019-01-06T11:09:03.657Z,2.63
2019-01-06T11:11:42.565Z,2.70
2019-01-06T11:14:24.223Z,2.63
2019-01-06T11:16:54.119Z,3.03
2019-01-06T11:19:33.221Z,2.40
2019-01-06T11:22:11.928Z,3.13
2019-01-06T11:24:44.255Z,2.43
2019-01-06T11:27:30.636Z,2.90
2019-01-06T11:30:16.844Z,3.27
2019-01-06T11:32:46.715Z,2.57
2019-01-06T11:35:29.141Z,2.80
2019-01-06T11:38:17.331Z,3.07
2019-01-06T11:41:07.997Z,2.73
2019-01-06T11:43:54.057Z,2.40
2019-01-06T11:46:26.641Z,3.40
2019-01-06T11:49:12.780Z,2.87
2019-01-06T11:51:42.665Z,3.00
2019-01-06T11:54:21.663Z,2.60
2019-01-06T11:56:51.547Z,3.07
2019-01-06T11:59:33.291Z,2.90
2019-01-06T12:02:08.629Z,3.40
2019-01-06T12:04:41.475Z,3.03
2019-01-06T12:07:29.790Z,3.07
2019-01-06T12:10:02.433Z,2.57
2019-01-06T12:12:35.241Z,2.47
2019-01-06T12:15:17.380Z,2.70
2019-01-06T12:18:02.517Z,2.50
2019-01-06T12:20:32.393Z,2.10
2019-01-06T12:23:02.281Z,2.30
2019-01-06T12:25:41.404Z,2.83
2019-01-06T12:28:14.176Z,2.30
2019-01-06T12:31:00.497Z,2.60
2019-01-06T12:33:39.433Z,2.97
2019-01-06T12:36:18.608Z,3.30
2019-01-06T12:38:55.626Z,2.33
2019-01-06T12:41:28.417Z,1.70
2019-01-06T12:43:58.303Z,1.80
2019-01-06T12:46:44.257Z,1.90
2019-01-06T12:49:30.183Z,1.60
2019-01-06T12:52:05.743Z,1.50
2019-01-06T12:54:41.833Z,1.70
2019-01-06T12:57:17.113Z,2.10
2019-01-06T12:59:55.931Z,1.60
2019-01-06T13:02:31.497Z,1.50
2019-01-06T13:05:17.666Z,1.60
2019-01-06T13:07:47.528Z,2.00
2019-01-06T13:10:26.402Z,1.90
2019-01-06T13:12:58.712Z,2.37
2019-01-06T13:15:31.562Z,1.50
2019-01-06T13:18:01.436Z,2.47
2019-01-06T13:20:34.309Z,2.00
2019-01-06T13:23:20.445Z,1.80
2019-01-06T13:26:08.437Z,1.97
2019-01-06T13:28:43.805Z,2.10
2019-01-06T13:31:19.544Z,1.80
2019-01-06T13:33:49.456Z,1.50
2019-01-06T13:36:35.595Z,1.70
2019-01-06T13:39:07.039Z,2.33
2019-01-06T13:41:36.949Z,1.80
2019-01-06T13:44:15.707Z,1.63
2019-01-06T13:47:01.565Z,1.50
2019-01-06T13:49:34.400Z,1.43
2019-01-06T13:52:10.010Z,1.80
2019-01-06T13:54:42.616Z,2.10
2019-01-06T13:57:15.277Z,2.07
2019-01-06T14:00:00.256Z,1.40
2019-01-06T14:02:30.147Z,1.53
2019-01-06T14:05:05.832Z,1.50
2019-01-06T14:07:36.647Z,1.40
2019-01-06T14:10:23.395Z,1.50
2019-01-06T14:12:53.270Z,1.70
2019-01-06T14:15:25.808Z,1.53
2019-01-06T14:17:55.717Z,1.90
2019-01-06T14:20:25.614Z,1.80
2019-01-06T14:22:55.489Z,1.60
2019-01-06T14:25:34.336Z,1.60
2019-01-06T14:28:04.226Z,1.87
2019-01-06T14:30:50.502Z,1.80
2019-01-06T14:33:35.730Z,1.90
2019-01-06T14:36:24.338Z,2.00
2019-01-06T14:39:10.898Z,1.60
2019-01-06T14:41:49.748Z,2.23
2019-01-06T14:44:35.544Z,1.90
2019-01-06T14:47:08.372Z,1.80
2019-01-06T14:49:53.327Z,1.57
2019-01-06T14:52:23.216Z,2.00
2019-01-06T14:54:53.087Z,1.77
2019-01-06T14:57:23.058Z,1.80
2019-01-06T14:59:55.872Z,2.00
2019-01-06T15:02:40.568Z,2.73
2019-01-06T15:05:10.441Z,2.57
2019-01-06T15:07:46.277Z,2.53
2019-01-06T15:10:31.232Z,1.90
2019-01-06T15:13:16.200Z,1.77
2019-01-06T15:16:02.379Z,1.93
2019-01-06T15:18:32.252Z,2.77
2019-01-06T15:21:02.137Z,2.53
2019-01-06T15:23:32.019Z,2.90
2019-01-06T15:26:10.931Z,2.00
2019-01-06T15:28:56.804Z,2.50
2019-01-06T15:31:29.660Z,2.70
2019-01-06T15:34:05.522Z,3.43
2019-01-06T15:36:51.704Z,3.10
2019-01-06T15:39:30.565Z,3.57
2019-01-06T15:42:00.691Z,3.47
2019-01-06T15:44:42.453Z,3.17
2019-01-06T15:47:28.141Z,2.90
2019-01-06T15:49:58.071Z,3.20
2019-01-06T15:52:44.244Z,2.83
2019-01-06T15:55:28.904Z,2.67
2019-01-06T15:57:58.792Z,2.77
2019-01-06T16:00:44.729Z,3.27
2019-01-06T16:03:14.615Z,2.83
2019-01-06T16:06:02.325Z,2.60
2019-01-06T16:08:37.741Z,3.47
2019-01-06T16:11:23.513Z,3.30
2019-01-06T16:14:11.296Z,2.60
2019-01-06T16:16:46.850Z,2.90
2019-01-06T16:19:31.785Z,2.40
2019-01-06T16:22:01.667Z,2.50
2019-01-06T16:24:34.489Z,2.30
2019-01-06T16:27:13.289Z,2.97
2019-01-06T16:29:59.237Z,2.57
2019-01-06T16:32:40.844Z,2.53
2019-01-06T16:35:16.435Z,3.03
2019-01-06T16:38:02.278Z,2.37
2019-01-06T16:40:47.937Z,2.40
2019-01-06T16:43:36.030Z,3.00
2019-01-06T16:46:06.820Z,2.47
2019-01-06T16:48:45.908Z,3.23
2019-01-06T16:51:27.501Z,2.33
2019-01-06T16:54:00.334Z,2.73
2019-01-06T16:56:46.225Z,2.77
2019-01-06T16:59:24.891Z,2.90
2019-01-06T17:02:11.078Z,2.57
2019-01-06T17:04:57.293Z,2.53
2019-01-06T17:07:42.047Z,2.30
2019-01-06T17:10:14.803Z,2.63
2019-01-06T17:12:44.748Z,3.17
2019-01-06T17:15:26.478Z,2.93
2019-01-06T17:17:59.281Z,2.60
2019-01-06T17:20:37.895Z,2.63
2019-01-06T17:23:22.824Z,2.80
2019-01-06T17:25:52.711Z,2.60
2019-01-06T17:28:22.601Z,2.60
2019-01-06T17:30:52.483Z,2.87
2019-01-06T17:33:25.135Z,3.53
2019-01-06T17:35:57.975Z,2.60
2019-01-06T17:38:27.840Z,2.40
2019-01-06T17:41:03.709Z,2.30
2019-01-06T17:43:48.681Z,2.27
2019-01-06T17:46:18.573Z,3.00
2019-01-06T17:49:06.199Z,3.10
2019-01-06T17:51:37.028Z,2.77
2019-01-06T17:54:24.863Z,3.43
2019-01-06T17:56:57.707Z,3.23
2019-01-06T17:59:44.333Z,2.90
2019-01-06T18:02:30.459Z,3.30
2019-01-06T18:05:16.654Z,3.93
2019-01-06T18:08:01.554Z,4.43
2019-01-06T18:10:34.195Z,3.83
2019-01-06T18:13:09.873Z,3.20
2019-01-06T18:15:51.855Z,3.60
2019-01-06T18:18:30.881Z,3.40
2019-01-06T18:21:09.799Z,3.40
2019-01-06T18:23:56.342Z,3.40
2019-01-06T18:26:26.869Z,4.27
2019-01-06T18:28:59.603Z,3.37
2019-01-06T18:31:46.150Z,3.70
2019-01-06T18:34:31.220Z,3.03
2019-01-06T18:37:16.383Z,3.50
2019-01-06T18:40:04.566Z,3.67
2019-01-06T18:42:34.481Z,3.43
2019-01-06T18:45:16.258Z,4.30
2019-01-06T18:47:46.517Z,3.10
2019-01-06T18:50:32.424Z,3.37
2019-01-06T18:53:02.371Z,3.03
2019-01-06T18:55:35.317Z,3.80
2019-01-06T18:58:05.198Z,3.23
2019-01-06T19:00:35.189Z,3.37
2019-01-06T19:03:13.849Z,3.40
2019-01-06T19:05:59.959Z,3.30
2019-01-06T19:08:29.857Z,3.40
2019-01-06T19:10:59.753Z,4.07
2019-01-06T19:13:38.467Z,3.77
2019-01-06T19:16:08.416Z,3.50
2019-01-06T19:18:38.367Z,4.50
2019-01-06T19:21:08.315Z,4.40
2019-01-06T19:23:53.343Z,4.20
2019-01-06T19:26:39.628Z,4.53
2019-01-06T19:29:12.199Z,4.70
2019-01-06T19:31:58.343Z,4.93
2019-01-06T19:34:28.234Z,4.73
2019-01-06T19:36:58.381Z,4.00
2019-01-06T19:39:28.299Z,4.70
2019-01-06T19:42:16.394Z,4.20
2019-01-06T19:45:02.347Z,4.67
2019-01-06T19:47:32.237Z,4.63
2019-01-06T19:50:17.296Z,4.43
2019-01-06T19:52:49.901Z,4.00
2019-01-06T19:55:25.479Z,4.10
2019-01-06T19:57:58.152Z,4.17
2019-01-06T20:00:44.674Z,4.50
2019-01-06T20:03:26.800Z,4.13
2019-01-06T20:06:13.403Z,4.07
2019-01-06T20:08:49.100Z,3.97
2019-01-06T20:11:18.987Z,3.77
2019-01-06T20:13:48.891Z,3.80
2019-01-06T20:16:21.767Z,4.00
2019-01-06T20:19:09.945Z,3.90
2019-01-06T20:21:45.599Z,3.80
2019-01-06T20:24:30.505Z,3.43
2019-01-06T20:27:18.520Z,3.13
2019-01-06T20:29:48.527Z,3.70
2019-01-06T20:32:18.475Z,3.50
2019-01-06T20:34:57.359Z,3.63
2019-01-06T20:37:33.479Z,3.63
2019-01-06T20:40:12.460Z,3.87
2019-01-06T20:42:54.267Z,4.03
2019-01-06T20:45:39.244Z,3.63
2019-01-06T20:48:11.680Z,3.47
2019-01-06T20:50:50.517Z,3.27
2019-01-06T20:53:26.279Z,3.80
2019-01-06T20:56:14.450Z,4.17
2019-01-06T20:58:44.324Z,4.57
2019-01-06T21:01:22.981Z,4.23
2019-01-06T21:03:55.541Z,4.33
2019-01-06T21:06:28.327Z,3.67
2019-01-06T21:09:14.629Z,4.70
2019-01-06T21:11:59.937Z,4.77
2019-01-06T21:14:32.663Z,4.87
2019-01-06T21:17:05.732Z,4.40
2019-01-06T21:19:35.622Z,3.73
2019-01-06T21:22:30.625Z,3.80
2019-01-06T21:25:09.343Z,3.50
2019-01-06T21:27:39.248Z,3.30
2019-01-06T21:30:16.259Z,3.23
2019-01-06T21:32:55.138Z,3.07
2019-01-06T21:35:25.017Z,3.40
2019-01-06T21:37:57.652Z,3.50
2019-01-06T21:40:43.936Z,3.90
2019-01-06T21:43:22.901Z,3.50
2019-01-06T21:45:55.481Z,3.57
2019-01-06T21:48:34.139Z,3.43
2019-01-06T21:51:04.052Z,3.70
2019-01-06T21:53:36.856Z,3.50
2019-01-06T21:59:11.256Z,3.10
2019-01-06T22:01:41.135Z,3.37
2019-01-06T22:04:26.076Z,2.90
2019-01-06T22:06:55.973Z,3.13
2019-01-06T22:09:28.813Z,4.33
2019-01-06T22:12:04.675Z,3.50
2019-01-06T22:14:37.307Z,3.43
2019-01-06T22:17:23.859Z,3.70
2019-01-06T22:20:02.758Z,3.50
2019-01-06T22:22:32.637Z,6.10
2019-01-06T22:25:02.540Z,5.00
2019-01-06T22:27:32.421Z,5.20
2019-01-06T22:30:11.094Z,5.13
2019-01-06T22:32:49.739Z,5.03
2019-01-06T22:35:25.570Z,5.13
2019-01-06T22:37:55.456Z,5.70
2019-01-06T22:40:28.039Z,6.50
2019-01-06T22:45:53.807Z,6.40
2019-01-06T22:48:32.982Z,6.57
2019-01-06T22:51:19.732Z,6.73
2019-01-06T22:53:55.675Z,6.97
2019-01-06T22:56:37.977Z,7.37
2019-01-06T22:59:24.337Z,7.67
2019-01-06T23:02:12.713Z,8.23
2019-01-06T23:04:45.552Z,7.27
2019-01-06T23:07:23.419Z,7.63
2019-01-06T23:10:03.512Z,8.83
2019-01-06T23:12:33.399Z,7.73
2019-01-06T23:15:03.301Z,8.13
2019-01-06T23:17:35.878Z,8.10
2019-01-06T23:20:12.016Z,8.27
2019-01-06T23:22:41.919Z,8.07
2019-01-06T23:25:30.008Z,8.83
2019-01-06T23:28:09.050Z,8.07
2019-01-06T23:30:57.008Z,8.33
2019-01-06T23:33:45.288Z,8.10
2019-01-06T23:36:18.155Z,7.77
2019-01-06T23:38:59.967Z,7.73
2019-01-06T23:41:32.795Z,7.43
2019-01-06T23:44:18.743Z,7.40
2019-01-06T23:46:48.620Z,7.23
2019-01-06T23:49:18.498Z,7.70
2019-01-06T23:52:03.161Z,7.33
2019-01-06T23:54:48.872Z,7.63
2019-01-06T23:57:27.451Z,7.77
2019-01-06T23:59:57.329Z,8.13
